createdAt,value
2022-08-12T00:01:08.126Z,1
2022-08-12T00:02:16.818Z,1.9
2022-08-12T00:03:26.517Z,0.5
2022-08-12T00:04:35.193Z,1
2022-08-12T00:05:58.315Z,2.2
2022-08-12T00:06:55.595Z,0.8
2022-08-12T00:08:04.273Z,0.8
2022-08-12T00:09:13.010Z,2.8
2022-08-12T00:10:21.710Z,1.8
2022-08-12T00:11:30.427Z,1.3
2022-08-12T00:12:40.349Z,0.9
2022-08-12T00:13:48.892Z,0.6
2022-08-12T00:14:56.572Z,0.8
2022-08-12T00:16:06.289Z,0.7
2022-08-12T00:17:14.941Z,1
2022-08-12T00:18:23.728Z,0.7
2022-08-12T00:19:32.391Z,1.3
2022-08-12T00:20:40.081Z,1.1
2022-08-12T00:21:49.747Z,1.1
2022-08-12T00:22:58.932Z,1.3
2022-08-12T00:24:07.104Z,1.4
2022-08-12T00:25:17.746Z,2.5
2022-08-12T00:26:27.455Z,1.4
2022-08-12T00:27:43.737Z,0.6
2022-08-12T00:28:47.802Z,1.6
2022-08-12T00:29:55.499Z,0.8
2022-08-12T00:31:05.154Z,0.9
2022-08-12T00:32:16.734Z,0.6
2022-08-12T00:33:23.426Z,0.7
2022-08-12T00:34:34.079Z,1.1
2022-08-12T00:35:44.324Z,0.9
2022-08-12T00:36:53.424Z,1.2
2022-08-12T00:38:04.088Z,1
2022-08-12T00:39:11.776Z,1.5
2022-08-12T00:40:21.420Z,0.9
2022-08-12T00:41:31.124Z,1.2
2022-08-12T00:42:39.027Z,1.4
2022-08-12T00:43:47.469Z,0.7
2022-08-12T00:44:56.128Z,1.7
2022-08-12T00:46:04.798Z,1.3
2022-08-12T00:47:24.325Z,1.2
2022-08-12T00:48:24.272Z,0.8
2022-08-12T00:49:34.423Z,1.7
2022-08-12T00:50:43.073Z,1.4
2022-08-12T00:51:50.821Z,0.7
2022-08-12T00:53:00.576Z,1.4
2022-08-12T00:54:10.258Z,1
2022-08-12T00:55:20.031Z,1
2022-08-12T00:56:29.687Z,1.5
2022-08-12T00:57:38.352Z,0.6
2022-08-12T00:58:48.044Z,0.8
2022-08-12T00:59:56.719Z,1.3
2022-08-12T01:01:06.440Z,0.5
2022-08-12T01:02:15.090Z,1.9
2022-08-12T01:03:24.673Z,1.5
2022-08-12T01:04:34.407Z,1.1
2022-08-12T01:05:43.070Z,1.4
2022-08-12T01:06:53.597Z,0.5
2022-08-12T01:08:02.409Z,1.4
2022-08-12T01:09:11.090Z,1.4
2022-08-12T01:10:27.462Z,0.9
2022-08-12T01:11:31.446Z,1
2022-08-12T01:12:39.293Z,1.1
2022-08-12T01:13:48.825Z,1.5
2022-08-12T01:14:57.470Z,1.7
2022-08-12T01:16:06.167Z,1.5
2022-08-12T01:17:14.863Z,1.5
2022-08-12T01:18:22.526Z,3
2022-08-12T01:19:32.210Z,1.2
2022-08-12T01:20:40.894Z,0.7
2022-08-12T01:21:49.581Z,0.8
2022-08-12T01:22:58.245Z,1
2022-08-12T01:24:23.214Z,1.1
2022-08-12T01:25:18.518Z,2.1
2022-08-12T01:26:26.223Z,1.8
2022-08-12T01:27:33.963Z,1.6
2022-08-12T01:28:43.607Z,1.9
2022-08-12T01:29:53.289Z,1.7
2022-08-12T01:31:02.980Z,1.6
2022-08-12T01:32:12.665Z,1.3
2022-08-12T01:33:22.402Z,1.4
2022-08-12T01:34:36.066Z,1.2
2022-08-12T01:35:42.748Z,1.3
2022-08-12T01:36:53.445Z,1.1
2022-08-12T01:38:03.084Z,0.6
2022-08-12T01:39:12.866Z,2.8
2022-08-12T01:40:30.936Z,1.6
2022-08-12T01:41:33.159Z,1.1
2022-08-12T01:42:42.875Z,1.1
2022-08-12T01:43:52.557Z,1.6
2022-08-12T01:45:02.284Z,1.7
2022-08-12T01:46:09.962Z,0.9
2022-08-12T01:47:19.636Z,1.6
2022-08-12T01:48:28.341Z,1.1
2022-08-12T01:49:36.035Z,1.2
2022-08-12T01:50:45.694Z,2.8
2022-08-12T01:52:14.888Z,0.8
2022-08-12T01:53:06.088Z,0.8
2022-08-12T01:54:15.750Z,1.2
2022-08-12T01:55:23.410Z,1.3
2022-08-12T01:56:33.157Z,1.8
2022-08-12T01:57:57.303Z,2.8
2022-08-12T01:58:52.588Z,1.8
2022-08-12T02:00:02.268Z,1.3
2022-08-12T02:01:11.074Z,0.8
2022-08-12T02:02:20.800Z,0.7
2022-08-12T02:03:28.455Z,1.5
2022-08-12T02:04:36.081Z,1.1
2022-08-12T02:05:45.818Z,0.9
2022-08-12T02:06:54.470Z,1.1
2022-08-12T02:08:02.144Z,1
2022-08-12T02:09:11.851Z,1.5
2022-08-12T02:10:49.015Z,1
2022-08-12T02:11:31.194Z,1.2
2022-08-12T02:12:40.005Z,2
2022-08-12T02:13:50.216Z,1.3
2022-08-12T02:14:59.201Z,1.7
2022-08-12T02:16:08.849Z,1.4
2022-08-12T02:17:18.510Z,1
2022-08-12T02:18:29.222Z,2.8
2022-08-12T02:19:37.915Z,1.3
2022-08-12T02:20:51.849Z,2.3
2022-08-12T02:21:59.215Z,1.8
2022-08-12T02:23:07.850Z,2.3
2022-08-12T02:24:17.516Z,1.5
2022-08-12T02:25:26.307Z,1.7
2022-08-12T02:26:35.022Z,1
2022-08-12T02:27:44.687Z,1.4
2022-08-12T02:28:53.347Z,0.7
2022-08-12T02:30:03.027Z,2
2022-08-12T02:31:11.822Z,1.6
2022-08-12T02:32:19.513Z,1
2022-08-12T02:33:29.276Z,1.8
2022-08-12T02:34:37.932Z,1.9
2022-08-12T02:35:46.602Z,1.6
2022-08-12T02:36:57.537Z,1.1
2022-08-12T02:38:06.104Z,1.6
2022-08-12T02:39:15.892Z,1.1
2022-08-12T02:40:26.525Z,3.4
2022-08-12T02:41:34.180Z,1.6
2022-08-12T02:42:43.872Z,0.7
2022-08-12T02:43:53.519Z,1.8
2022-08-12T02:45:01.197Z,1.2
2022-08-12T02:46:14.336Z,1.8
2022-08-12T02:47:56.026Z,1.1
2022-08-12T02:48:30.184Z,1.7
2022-08-12T02:49:38.851Z,1.8
2022-08-12T02:50:47.540Z,0.8
2022-08-12T02:51:57.258Z,0.7
2022-08-12T02:53:05.929Z,1.1
2022-08-12T02:54:13.619Z,1.5
2022-08-12T02:55:29.027Z,1
2022-08-12T02:56:31.930Z,1.5
2022-08-12T02:57:41.602Z,1.5
2022-08-12T02:58:50.258Z,0.7
2022-08-12T02:59:59.012Z,1.3
2022-08-12T03:01:07.765Z,1.4
2022-08-12T03:02:16.357Z,1.4
2022-08-12T03:03:26.019Z,1.3
2022-08-12T03:04:34.679Z,1.2
2022-08-12T03:05:45.375Z,1
2022-08-12T03:06:55.039Z,1.3
2022-08-12T03:08:04.699Z,1.4
2022-08-12T03:09:14.386Z,2.7
2022-08-12T03:10:36.497Z,1.6
2022-08-12T03:11:36.795Z,2
2022-08-12T03:12:49.201Z,1.8
2022-08-12T03:13:55.150Z,2.7
2022-08-12T03:15:02.857Z,1.6
2022-08-12T03:16:12.558Z,2.1
2022-08-12T03:17:21.217Z,1.2
2022-08-12T03:18:29.961Z,2.2
2022-08-12T03:19:38.654Z,1.8
2022-08-12T03:20:47.336Z,1.7
2022-08-12T03:22:08.359Z,1.1
2022-08-12T03:23:06.731Z,1.3
2022-08-12T03:24:14.377Z,2.4
2022-08-12T03:25:24.094Z,1
2022-08-12T03:26:32.748Z,1.7
2022-08-12T03:27:41.420Z,1.2
2022-08-12T03:28:50.225Z,1.2
2022-08-12T03:29:57.885Z,2.8
2022-08-12T03:31:07.583Z,2
2022-08-12T03:32:35.393Z,1.8
2022-08-12T03:33:24.900Z,1.2
2022-08-12T03:34:34.599Z,1.3
2022-08-12T03:35:44.243Z,1.6
2022-08-12T03:36:53.913Z,2.2
2022-08-12T03:38:03.590Z,2.1
2022-08-12T03:39:12.265Z,2.5
2022-08-12T03:40:20.965Z,1.5
2022-08-12T03:41:30.669Z,1
2022-08-12T03:42:38.338Z,3.2
2022-08-12T03:43:48.067Z,2
2022-08-12T03:44:56.777Z,1.7
2022-08-12T03:46:05.516Z,0.9
2022-08-12T03:47:14.199Z,1.2
2022-08-12T03:48:22.878Z,1.6
2022-08-12T03:49:32.542Z,1.7
2022-08-12T03:50:41.194Z,2.3
2022-08-12T03:51:48.873Z,1.2
2022-08-12T03:52:58.708Z,1.2
2022-08-12T03:54:07.371Z,1.6
2022-08-12T03:55:17.019Z,4
2022-08-12T03:56:25.680Z,1.6
2022-08-12T03:57:33.397Z,1.7
2022-08-12T03:58:43.050Z,3.4
2022-08-12T03:59:51.697Z,2.1
2022-08-12T04:00:59.513Z,2.6
2022-08-12T04:02:10.034Z,2.5
2022-08-12T04:03:19.735Z,1.5
2022-08-12T04:04:28.384Z,2.8
2022-08-12T04:05:54.890Z,2.5
2022-08-12T04:06:46.669Z,2.5
2022-08-12T04:07:58.149Z,1.6
2022-08-12T04:09:14.961Z,1.7
2022-08-12T04:10:15.916Z,1.7
2022-08-12T04:11:28.054Z,1.6
2022-08-12T04:12:35.499Z,1.4
2022-08-12T04:13:43.846Z,1.7
2022-08-12T04:14:53.555Z,1
2022-08-12T04:16:01.223Z,2.7
2022-08-12T04:17:10.926Z,1.2
2022-08-12T04:18:20.565Z,1.1
2022-08-12T04:19:29.246Z,1.8
2022-08-12T04:20:38.944Z,1.4
2022-08-12T04:22:02.560Z,2.3
2022-08-12T04:22:58.270Z,1.9
2022-08-12T04:24:06.959Z,1.9
2022-08-12T04:25:15.621Z,1.1
2022-08-12T04:26:25.313Z,1.9
2022-08-12T04:27:33.960Z,2.1
2022-08-12T04:28:41.621Z,3
2022-08-12T04:30:17.537Z,2.1
2022-08-12T04:31:00.900Z,1.2
2022-08-12T04:32:09.707Z,2.1
2022-08-12T04:33:18.359Z,2
2022-08-12T04:34:26.068Z,1.6
2022-08-12T04:35:35.759Z,1.4
2022-08-12T04:36:44.419Z,2
2022-08-12T04:37:57.702Z,1.7
2022-08-12T04:39:04.770Z,1.6
2022-08-12T04:40:12.426Z,0.8
2022-08-12T04:41:21.097Z,1.8
2022-08-12T04:42:28.895Z,2
2022-08-12T04:43:54.141Z,1.4
2022-08-12T04:44:49.319Z,2.2
2022-08-12T04:45:58.851Z,2
2022-08-12T04:47:07.511Z,1.6
2022-08-12T04:48:17.169Z,1.5
2022-08-12T04:49:25.901Z,1.6
2022-08-12T04:50:36.813Z,2.2
2022-08-12T04:51:53.486Z,1.7
2022-08-12T04:52:54.803Z,1.6
2022-08-12T04:54:04.486Z,1.3
2022-08-12T04:55:11.146Z,1.4
2022-08-12T04:56:20.823Z,1
2022-08-12T04:57:30.468Z,1.9
2022-08-12T04:58:38.117Z,1.9
2022-08-12T04:59:48.958Z,1.2
2022-08-12T05:00:56.413Z,1
2022-08-12T05:02:09.518Z,2.7
2022-08-12T05:03:16.861Z,1.6
2022-08-12T05:04:24.524Z,3.5
2022-08-12T05:05:36.204Z,3.2
2022-08-12T05:06:43.869Z,2
2022-08-12T05:07:53.746Z,2
2022-08-12T05:09:03.231Z,2
2022-08-12T05:10:11.913Z,1.3
2022-08-12T05:11:20.552Z,2.4
2022-08-12T05:12:29.229Z,1.6
2022-08-12T05:13:37.903Z,2.1
2022-08-12T05:14:47.653Z,2.2
2022-08-12T05:16:05.335Z,2.4
2022-08-12T05:17:06.919Z,1.5
2022-08-12T05:18:19.804Z,1.3
2022-08-12T05:19:26.225Z,1.7
2022-08-12T05:20:35.941Z,2
2022-08-12T05:21:44.624Z,2.3
2022-08-12T05:22:57.091Z,2.2
2022-08-12T05:24:04.983Z,1.6
2022-08-12T05:25:13.653Z,1.9
2022-08-12T05:26:22.287Z,1.6
2022-08-12T05:27:31.946Z,1.8
2022-08-12T05:28:40.627Z,2.8
2022-08-12T05:30:05.920Z,2.3
2022-08-12T05:31:00.952Z,1.1
2022-08-12T05:32:08.606Z,2.5
2022-08-12T05:33:18.267Z,2.3
2022-08-12T05:34:26.909Z,2.6
2022-08-12T05:35:34.728Z,2.4
2022-08-12T05:36:44.451Z,1.2
2022-08-12T05:37:53.116Z,1.2
2022-08-12T05:39:01.876Z,1.4
2022-08-12T05:40:11.580Z,1.3
2022-08-12T05:41:19.431Z,1.8
2022-08-12T05:42:32.459Z,2.3
2022-08-12T05:43:37.735Z,1.1
2022-08-12T05:44:45.404Z,1.5
2022-08-12T05:45:54.055Z,1.6
2022-08-12T05:47:02.723Z,2.8
2022-08-12T05:48:11.396Z,1.8
2022-08-12T05:49:21.081Z,1
2022-08-12T05:50:29.788Z,1.1
2022-08-12T05:51:39.514Z,2
2022-08-12T05:52:49.184Z,3.2
2022-08-12T05:53:58.850Z,1.4
2022-08-12T05:55:08.518Z,1.4
2022-08-12T05:56:17.168Z,1.4
2022-08-12T05:57:25.820Z,1.6
2022-08-12T05:58:34.505Z,2.6
2022-08-12T05:59:42.160Z,1
2022-08-12T06:00:51.854Z,1
2022-08-12T06:02:11.029Z,2.3
2022-08-12T06:03:09.297Z,0.5
2022-08-12T06:04:18.930Z,1.2
2022-08-12T06:05:28.700Z,1.6
2022-08-12T06:06:39.643Z,1.2
2022-08-12T06:07:59.330Z,1.3
2022-08-12T06:08:56.793Z,0.9
2022-08-12T06:10:06.575Z,2
2022-08-12T06:11:15.266Z,1.9
2022-08-12T06:12:22.919Z,2.5
2022-08-12T06:13:52.681Z,1.3
2022-08-12T06:14:43.284Z,0.8
2022-08-12T06:15:51.965Z,0.7
2022-08-12T06:17:00.636Z,0.9
2022-08-12T06:18:11.697Z,0.9
2022-08-12T06:19:20.996Z,1.1
2022-08-12T06:20:30.230Z,1.7
2022-08-12T06:21:39.317Z,1.3
2022-08-12T06:22:48.975Z,1.2
2022-08-12T06:23:58.652Z,1.2
2022-08-12T06:25:07.340Z,1.3
2022-08-12T06:26:16.043Z,2
2022-08-12T06:27:23.726Z,1.2
2022-08-12T06:28:33.372Z,0.9
2022-08-12T06:30:07.651Z,1.1
2022-08-12T06:32:03.389Z,1.2
2022-08-12T06:33:21.341Z,1.9
2022-08-12T06:35:22.800Z,1.7
2022-08-12T06:35:49.039Z,1.5
2022-08-12T06:36:45.067Z,1.8
2022-08-12T06:37:56.870Z,0.5
2022-08-12T06:39:05.401Z,1
2022-08-12T06:40:15.024Z,0.8
2022-08-12T06:41:25.697Z,0.8
2022-08-12T06:42:35.375Z,0.7
2022-08-12T06:44:04.390Z,0.6
2022-08-12T06:44:54.700Z,2.2
2022-08-12T06:46:02.387Z,2.1
2022-08-12T06:47:12.170Z,1.4
2022-08-12T06:48:20.979Z,1.5
2022-08-12T06:49:28.638Z,1
2022-08-12T06:50:40.127Z,1
2022-08-12T06:51:50.119Z,0.8
2022-08-12T06:52:58.626Z,0.6
2022-08-12T06:54:08.296Z,1.1
2022-08-12T06:55:16.976Z,0.4
2022-08-12T06:56:40.158Z,0.7
2022-08-12T06:57:57.661Z,0.6
2022-08-12T06:58:46.973Z,0.7
2022-08-12T06:59:55.671Z,0.8
2022-08-12T07:01:04.429Z,0.7
2022-08-12T07:02:14.089Z,0.5
2022-08-12T07:03:23.856Z,0.6
2022-08-12T07:04:38.163Z,1.6
2022-08-12T07:05:44.094Z,0.5
2022-08-12T07:06:52.788Z,0.4
2022-08-12T07:08:05.058Z,0.4
2022-08-12T07:09:16.339Z,0.7
2022-08-12T07:10:21.945Z,0.3
2022-08-12T07:11:31.643Z,1
2022-08-12T07:12:40.450Z,0.5
2022-08-12T07:14:02.807Z,0.7
2022-08-12T07:15:00.818Z,0.7
2022-08-12T07:16:08.510Z,0.9
2022-08-12T07:17:18.198Z,0.7
2022-08-12T07:18:27.909Z,1.2
2022-08-12T07:19:39.628Z,0.4
2022-08-12T07:20:52.529Z,0.5
2022-08-12T07:22:02.445Z,0.9
2022-08-12T07:23:09.655Z,0.4
2022-08-12T07:24:20.394Z,0.2
2022-08-12T07:25:28.148Z,1.5
2022-08-12T07:26:38.921Z,1.7
2022-08-12T07:27:48.578Z,0.5
2022-08-12T07:28:55.353Z,0.7
2022-08-12T07:30:06.107Z,0.5
2022-08-12T07:31:17.232Z,1.3
2022-08-12T07:32:24.710Z,1
2022-08-12T07:33:35.243Z,0.4
2022-08-12T07:34:42.984Z,0.2
2022-08-12T07:35:52.675Z,0.8
2022-08-12T07:37:03.739Z,0.6
2022-08-12T07:38:12.102Z,3.1
2022-08-12T07:39:21.791Z,1.2
2022-08-12T07:40:30.454Z,0.3
2022-08-12T07:41:39.144Z,0.4
2022-08-12T07:42:47.957Z,0.6
2022-08-12T07:43:55.643Z,0.6
2022-08-12T07:45:06.391Z,0.6
2022-08-12T07:46:15.083Z,0.4
2022-08-12T07:47:24.757Z,0.9
2022-08-12T07:48:34.467Z,0.3
2022-08-12T07:50:04.040Z,0.2
2022-08-12T07:50:53.796Z,0.7
2022-08-12T07:52:03.486Z,0.2
2022-08-12T07:53:12.139Z,0.3
2022-08-12T07:54:21.859Z,1.3
2022-08-12T07:55:30.550Z,0.3
2022-08-12T07:56:39.218Z,0.3
2022-08-12T07:57:48.898Z,0.1
2022-08-12T07:58:58.582Z,0.2
2022-08-12T08:00:08.295Z,0.2
2022-08-12T08:01:17.027Z,0.5
2022-08-12T08:02:27.645Z,0.9
2022-08-12T08:03:37.319Z,0.3
2022-08-12T08:04:46.991Z,0.2
2022-08-12T08:05:55.712Z,0.1
2022-08-12T08:07:04.419Z,0.2
2022-08-12T08:08:14.141Z,0.3
2022-08-12T08:09:23.981Z,0.3
2022-08-12T08:10:33.686Z,0.3
2022-08-12T08:11:42.424Z,0.1
2022-08-12T08:12:52.150Z,0.2
2022-08-12T08:14:01.822Z,0.4
2022-08-12T08:15:09.534Z,0.3
2022-08-12T08:16:19.245Z,1.7
2022-08-12T08:17:28.043Z,2.1
2022-08-12T08:18:37.780Z,0.1
2022-08-12T08:19:48.638Z,0.5
2022-08-12T08:20:56.057Z,0.2
2022-08-12T08:22:05.721Z,0.1
2022-08-12T08:23:15.548Z,0.1
2022-08-12T08:24:23.215Z,0.2
2022-08-12T08:25:35.489Z,0.5
2022-08-12T08:26:42.547Z,0.5
2022-08-12T08:27:52.202Z,0.1
2022-08-12T08:28:59.950Z,0.8
2022-08-12T08:30:10.739Z,0.9
2022-08-12T08:31:20.467Z,0
2022-08-12T08:32:29.193Z,0.3
2022-08-12T08:34:04.499Z,0.5
2022-08-12T08:34:53.150Z,0.3
2022-08-12T08:35:59.170Z,0.1
2022-08-12T08:37:10.492Z,0.2
2022-08-12T08:38:31.736Z,0.4
2022-08-12T08:39:29.373Z,0.7
2022-08-12T08:40:39.004Z,0.8
2022-08-12T08:42:13.432Z,0.1
2022-08-12T08:42:57.289Z,0.1
2022-08-12T08:44:06.972Z,0.1
2022-08-12T08:45:16.621Z,0.2
2022-08-12T08:46:25.309Z,0.2
2022-08-12T08:47:34.973Z,0.2
2022-08-12T08:48:42.615Z,0.3
2022-08-12T08:49:52.290Z,0.2
2022-08-12T08:51:04.639Z,0.9
2022-08-12T08:52:10.594Z,0
2022-08-12T08:53:19.283Z,0.3
2022-08-12T08:54:27.958Z,0.2
2022-08-12T08:56:01.522Z,0.1
2022-08-12T08:56:48.232Z,0.1
2022-08-12T08:57:57.922Z,0.2
2022-08-12T08:59:06.572Z,0.4
2022-08-12T09:00:16.226Z,0.3
2022-08-12T09:01:25.937Z,0.1
2022-08-12T09:02:36.561Z,0.1
2022-08-12T09:04:21.115Z,0.4
2022-08-12T09:05:10.402Z,0.8
2022-08-12T09:06:07.473Z,0.4
2022-08-12T09:07:43.693Z,0.1
2022-08-12T09:08:28.872Z,0.3
2022-08-12T09:10:01.894Z,0.5
2022-08-12T09:10:49.375Z,0.5
2022-08-12T09:12:07.735Z,0.3
2022-08-12T09:13:16.221Z,0.3
2022-08-12T09:14:20.036Z,0.1
2022-08-12T09:15:34.879Z,1
2022-08-12T09:17:50.139Z,0.1
2022-08-12T09:18:57.833Z,0.2
2022-08-12T09:20:07.497Z,0.3
2022-08-12T09:21:16.348Z,0.1
2022-08-12T09:22:28.666Z,0.5
2022-08-12T09:23:58.053Z,0.6
2022-08-12T09:24:44.326Z,0.3
2022-08-12T09:25:52.997Z,0.5
2022-08-12T09:27:02.786Z,0.1
2022-08-12T09:28:12.401Z,0.6
2022-08-12T09:30:09.495Z,0.2
2022-08-12T09:30:41.532Z,0.4
2022-08-12T09:32:04.539Z,0.3
2022-08-12T09:32:56.887Z,0.1
2022-08-12T09:34:24.918Z,0.4
2022-08-12T09:35:18.787Z,0.6
2022-08-12T09:36:30.575Z,7.3
2022-08-12T09:37:52.952Z,0.3
2022-08-12T09:38:58.696Z,0.1
2022-08-12T09:40:00.707Z,0
2022-08-12T09:42:10.430Z,3
2022-08-12T09:42:35.343Z,0.6
2022-08-12T09:43:29.976Z,0.4
2022-08-12T09:44:39.948Z,0.8
2022-08-12T09:46:05.608Z,0
2022-08-12T09:46:57.826Z,0.7
2022-08-12T09:48:08.497Z,0.1
2022-08-12T09:49:19.135Z,0.3
2022-08-12T09:50:28.820Z,0.2
2022-08-12T09:51:43.513Z,0.1
2022-08-12T09:52:47.163Z,0.4
2022-08-12T09:54:05.749Z,0.9
2022-08-12T09:55:07.479Z,0.1
2022-08-12T09:56:39.806Z,0
2022-08-12T09:58:08.370Z,0.1
2022-08-12T09:58:47.241Z,0.4
2022-08-12T10:00:14.435Z,0.5
2022-08-12T10:01:00.794Z,0.1
2022-08-12T10:02:43.563Z,0.3
2022-08-12T10:03:31.171Z,0.1
2022-08-12T10:04:32.812Z,0.2
2022-08-12T10:05:51.802Z,0.8
2022-08-12T10:06:56.798Z,0.5
2022-08-12T10:08:03.716Z,1
2022-08-12T10:09:13.412Z,0.4
2022-08-12T10:10:24.695Z,0.4
2022-08-12T10:11:41.344Z,0.1
2022-08-12T10:12:43.639Z,0.2
2022-08-12T10:13:54.083Z,0.9
2022-08-12T10:15:02.773Z,0.3
2022-08-12T10:16:18.447Z,0.4
2022-08-12T10:17:23.150Z,0.2
2022-08-12T10:18:32.930Z,0.1
2022-08-12T10:19:45.576Z,0
2022-08-12T10:20:51.194Z,0.7
2022-08-12T10:22:00.876Z,0.1
2022-08-12T10:23:12.531Z,0.6
2022-08-12T10:24:20.547Z,0.3
2022-08-12T10:26:18.746Z,1.9
2022-08-12T10:26:40.603Z,0.1
2022-08-12T10:28:03.390Z,0.3
2022-08-12T10:29:03.283Z,0
2022-08-12T10:30:39.082Z,0.6
2022-08-12T10:31:23.271Z,0.7
2022-08-12T10:32:42.784Z,0.1
2022-08-12T10:33:55.850Z,0.5
2022-08-12T10:34:56.995Z,0.1
2022-08-12T10:36:03.930Z,0.2
2022-08-12T10:37:23.017Z,0.1
2022-08-12T10:38:36.861Z,0.2
2022-08-12T10:40:00.530Z,0.3
2022-08-12T10:40:44.590Z,0.1
2022-08-12T10:41:57.505Z,0.5
2022-08-12T10:43:04.853Z,0.1
2022-08-12T10:44:17.159Z,0.1
2022-08-12T10:45:24.125Z,0.2
2022-08-12T10:46:34.832Z,0.1
2022-08-12T10:48:01.391Z,0.1
2022-08-12T10:48:58.503Z,1.5
2022-08-12T10:50:23.674Z,0.5
2022-08-12T10:51:56.532Z,0.4
2022-08-12T10:52:33.528Z,1.2
2022-08-12T10:53:44.672Z,0.5
2022-08-12T10:54:49.187Z,0.3
2022-08-12T10:55:58.325Z,0.3
2022-08-12T10:57:08.980Z,0.5
2022-08-12T10:58:28.476Z,0.1
2022-08-12T10:59:32.122Z,0.4
2022-08-12T11:00:45.385Z,0.2
2022-08-12T11:04:21.172Z,0.2
2022-08-12T11:04:21.711Z,0.2
2022-08-12T11:04:21.720Z,0.4
2022-08-12T11:07:04.047Z,0.1
2022-08-12T11:07:04.244Z,0.6
2022-08-12T11:08:35.461Z,0.2
2022-08-12T11:08:55.491Z,0.3
2022-08-12T11:10:05.165Z,0.3
2022-08-12T11:11:16.809Z,0.1
2022-08-12T11:12:36.366Z,0.4
2022-08-12T11:13:39.919Z,3
2022-08-12T11:14:48.944Z,0.1
2022-08-12T11:16:03.084Z,0.1
2022-08-12T11:17:33.906Z,0.1
2022-08-12T11:18:18.157Z,0.5
2022-08-12T11:19:25.195Z,0.3
2022-08-12T11:20:35.825Z,0.3
2022-08-12T11:21:56.196Z,0.3
2022-08-12T11:22:57.986Z,0.2
2022-08-12T11:24:05.787Z,0
2022-08-12T11:25:16.463Z,0.3
2022-08-12T11:26:26.122Z,0.3
2022-08-12T11:27:34.879Z,0.7
2022-08-12T11:28:44.481Z,0.4
2022-08-12T11:30:00.707Z,0.1
2022-08-12T11:31:03.887Z,0.2
2022-08-12T11:32:13.571Z,0.1
2022-08-12T11:33:24.279Z,0.4
2022-08-12T11:34:52.377Z,0.1
2022-08-12T11:35:43.511Z,0
2022-08-12T11:36:53.391Z,0.2
2022-08-12T11:38:02.981Z,0.4
2022-08-12T11:39:12.720Z,0.4
2022-08-12T11:40:22.113Z,0.2
2022-08-12T11:41:32.838Z,0.1
2022-08-12T11:42:46.205Z,0.4
2022-08-12T11:43:58.181Z,0.2
2022-08-12T11:45:02.792Z,0.4
2022-08-12T11:46:12.434Z,0
2022-08-12T11:47:23.148Z,0.3
2022-08-12T11:48:31.803Z,0.5
2022-08-12T11:49:40.446Z,0.2
2022-08-12T11:50:51.162Z,0.4
2022-08-12T11:51:59.760Z,0.4
2022-08-12T11:53:58.725Z,0.1
2022-08-12T11:54:20.123Z,0.2
2022-08-12T11:55:29.557Z,0.3
2022-08-12T11:56:42.058Z,0.3
2022-08-12T11:58:01.191Z,0.1
2022-08-12T12:02:00.665Z,0.2
2022-08-12T12:02:31.949Z,0.6
2022-08-12T12:03:45.635Z,0.6
2022-08-12T12:04:52.383Z,0.4
2022-08-12T12:06:00.859Z,0
2022-08-12T12:07:11.423Z,0.1
2022-08-12T12:08:37.031Z,0.5
2022-08-12T12:09:29.902Z,0.1
2022-08-12T12:10:40.613Z,0.2
2022-08-12T12:11:50.249Z,0.5
2022-08-12T12:13:00.913Z,0.1
2022-08-12T12:14:11.150Z,0.5
2022-08-12T12:15:25.012Z,0.3
2022-08-12T12:16:33.271Z,0.1
2022-08-12T12:17:42.690Z,0.1
2022-08-12T12:18:52.415Z,0.1
2022-08-12T12:20:02.074Z,0.8
2022-08-12T12:21:10.772Z,0.1
2022-08-12T12:22:23.313Z,0.1
2022-08-12T12:23:30.870Z,0.4
2022-08-12T12:24:39.751Z,0.1
2022-08-12T12:25:59.148Z,0.3
2022-08-12T12:26:59.858Z,0
2022-08-12T12:28:08.716Z,0
2022-08-12T12:30:14.279Z,0.3
2022-08-12T12:30:30.369Z,0.5
2022-08-12T12:32:09.462Z,0.3
2022-08-12T12:32:53.233Z,0.8
2022-08-12T12:34:00.128Z,0.8
2022-08-12T12:35:13.331Z,0
2022-08-12T12:36:23.091Z,1
2022-08-12T12:37:58.902Z,0
2022-08-12T12:38:40.742Z,0.3
2022-08-12T12:39:54.972Z,0.2
2022-08-12T12:41:14.544Z,0.1
2022-08-12T12:42:42.283Z,0.2
2022-08-12T12:43:28.494Z,0.1
2022-08-12T12:44:38.971Z,0.3
2022-08-12T12:45:44.264Z,0.1
2022-08-12T12:46:54.697Z,0.2
2022-08-12T12:48:03.095Z,0.2
2022-08-12T12:49:15.264Z,0.1
2022-08-12T12:50:26.894Z,0.5
2022-08-12T12:51:49.686Z,0.1
2022-08-12T12:52:43.749Z,0.1
2022-08-12T12:54:05.471Z,0.2
2022-08-12T12:55:02.212Z,0
2022-08-12T12:56:11.902Z,0.2
2022-08-12T12:57:21.524Z,0.2
2022-08-12T12:58:29.191Z,0.3
2022-08-12T12:59:55.785Z,0.1
2022-08-12T13:00:51.107Z,0.2
2022-08-12T13:01:59.186Z,0.1
2022-08-12T13:03:11.303Z,0.2
2022-08-12T13:04:17.510Z,0.3
2022-08-12T13:05:28.341Z,0.6
2022-08-12T13:06:36.860Z,0
2022-08-12T13:07:49.138Z,1.6
2022-08-12T13:08:57.178Z,0.1
2022-08-12T13:10:06.831Z,0.3
2022-08-12T13:11:16.499Z,0.2
2022-08-12T13:12:24.159Z,0.1
2022-08-12T13:14:08.354Z,0.2
2022-08-12T13:14:44.443Z,0.1
2022-08-12T13:15:54.098Z,0
2022-08-12T13:17:06.058Z,0
2022-08-12T13:18:13.372Z,0.3
2022-08-12T13:19:24.931Z,0.3
2022-08-12T13:20:37.613Z,0
2022-08-12T13:21:44.308Z,0.3
2022-08-12T13:22:53.208Z,0.2
2022-08-12T13:24:09.603Z,0.3
2022-08-12T13:25:13.248Z,0
2022-08-12T13:26:23.967Z,0.1
2022-08-12T13:27:34.855Z,0.1
2022-08-12T13:28:43.230Z,3.7
2022-08-12T13:29:53.865Z,0.8
2022-08-12T13:31:02.497Z,0.2
2022-08-12T13:32:18.657Z,0
2022-08-12T13:33:22.785Z,0.1
2022-08-12T13:34:35.555Z,0
2022-08-12T13:36:03.265Z,0
2022-08-12T13:36:54.684Z,0.2
2022-08-12T13:38:03.570Z,0.7
2022-08-12T13:39:13.279Z,0.3
2022-08-12T13:40:22.881Z,0
2022-08-12T13:41:31.533Z,0
2022-08-12T13:42:41.418Z,0
2022-08-12T13:43:50.861Z,0.1
2022-08-12T13:45:03.036Z,0
2022-08-12T13:46:12.013Z,0.7
2022-08-12T13:47:20.836Z,0
2022-08-12T13:48:29.504Z,0.1
2022-08-12T13:49:53.500Z,0.1
2022-08-12T13:50:48.790Z,0.3
2022-08-12T13:51:57.442Z,0
2022-08-12T13:53:23.677Z,0.1
2022-08-12T13:54:17.759Z,0.1
2022-08-12T13:55:30.883Z,0.1
2022-08-12T13:56:37.070Z,0.1
2022-08-12T13:57:46.899Z,0.1
2022-08-12T13:58:56.392Z,1.7
2022-08-12T14:00:05.029Z,0.1
2022-08-12T14:01:14.695Z,0.1
2022-08-12T14:02:24.514Z,0
2022-08-12T14:03:48.849Z,0
2022-08-12T14:04:44.596Z,0.2
2022-08-12T14:05:55.798Z,0.1
2022-08-12T14:07:04.949Z,0
2022-08-12T14:08:13.588Z,0
2022-08-12T14:09:23.298Z,0.1
2022-08-12T14:10:33.995Z,0.1
2022-08-12T14:11:44.765Z,0
2022-08-12T14:12:54.328Z,0.8
2022-08-12T14:14:12.712Z,0.2
2022-08-12T14:15:12.572Z,0.1
2022-08-12T14:16:32.478Z,0.1
2022-08-12T14:17:31.915Z,0.1
2022-08-12T14:18:41.634Z,0
2022-08-12T14:19:52.835Z,0.1
2022-08-12T14:20:59.882Z,0
2022-08-12T14:22:10.613Z,1.5
2022-08-12T14:24:01.786Z,0.1
2022-08-12T14:24:30.739Z,0
2022-08-12T14:25:40.613Z,0
2022-08-12T14:26:48.132Z,0.1
2022-08-12T14:28:02.951Z,0
2022-08-12T14:29:08.417Z,0
2022-08-12T14:30:24.234Z,0.4
2022-08-12T14:31:31.703Z,0
2022-08-12T14:32:39.323Z,0
2022-08-12T14:33:49.966Z,0.2
2022-08-12T14:34:59.598Z,0
2022-08-12T14:36:08.306Z,0.4
2022-08-12T14:37:55.711Z,0
2022-08-12T14:38:29.574Z,0
2022-08-12T14:39:39.313Z,0
2022-08-12T14:40:49.866Z,0
2022-08-12T14:41:58.537Z,0.2
2022-08-12T14:43:07.185Z,0.2
2022-08-12T14:44:57.029Z,0.2
2022-08-12T14:45:37.374Z,0
2022-08-12T14:46:37.189Z,0
2022-08-12T14:47:45.872Z,0.1
2022-08-12T14:48:54.491Z,0.4
2022-08-12T14:50:42.006Z,0.4
2022-08-12T14:52:39.032Z,0.4
2022-08-12T14:52:54.748Z,0.3
2022-08-12T14:54:44.839Z,0.1
2022-08-12T14:57:19.711Z,0
2022-08-12T14:58:23.743Z,0.2
2022-08-12T14:59:56.572Z,0
2022-08-12T15:00:47.727Z,0.2
2022-08-12T15:01:54.500Z,0.1
2022-08-12T15:03:03.512Z,0.2
2022-08-12T15:04:13.227Z,0
2022-08-12T15:06:03.598Z,0.3
2022-08-12T15:06:39.932Z,0.1
2022-08-12T15:07:50.214Z,0
2022-08-12T15:08:53.874Z,0
2022-08-12T15:10:04.513Z,0
2022-08-12T15:11:14.357Z,0.1
2022-08-12T15:12:24.913Z,0.6
2022-08-12T15:13:34.604Z,0.1
2022-08-12T15:14:45.661Z,0.2
2022-08-12T15:15:54.972Z,0.2
2022-08-12T15:17:03.666Z,0
2022-08-12T15:18:11.349Z,0.1
2022-08-12T15:20:12.296Z,0.2
2022-08-12T15:20:37.189Z,0.2
2022-08-12T15:22:36.206Z,0.5
2022-08-12T15:22:53.539Z,0
2022-08-12T15:24:00.153Z,0.1
2022-08-12T15:25:08.797Z,0.1
2022-08-12T15:26:20.855Z,0
2022-08-12T15:27:31.884Z,0
2022-08-12T15:28:40.822Z,0.2
2022-08-12T15:29:52.204Z,0.1
2022-08-12T15:31:01.372Z,0.1
2022-08-12T15:32:15.868Z,0.9
2022-08-12T15:33:24.072Z,0.6
2022-08-12T15:34:33.216Z,0
2022-08-12T15:35:50.116Z,0
2022-08-12T15:36:55.604Z,0
2022-08-12T15:38:10.665Z,0.3
2022-08-12T15:39:16.621Z,0.1
2022-08-12T15:40:29.968Z,0.1
2022-08-12T15:41:49.796Z,0
2022-08-12T15:42:50.882Z,0.7
2022-08-12T15:44:16.719Z,0.1
2022-08-12T15:45:04.235Z,0
2022-08-12T15:46:16.198Z,0.4
2022-08-12T15:47:26.762Z,0.1
2022-08-12T15:48:35.407Z,0
2022-08-12T15:49:55.222Z,0.1
2022-08-12T15:50:55.970Z,0.1
2022-08-12T15:52:05.684Z,0
2022-08-12T15:53:15.369Z,0.2
2022-08-12T15:54:31.555Z,0
2022-08-12T15:55:36.721Z,0.7
2022-08-12T15:56:46.351Z,0
2022-08-12T15:57:56.114Z,0
2022-08-12T15:59:05.877Z,0.4
2022-08-12T16:00:22.358Z,0.2
2022-08-12T16:01:26.253Z,0.1
2022-08-12T16:02:36.895Z,0
2022-08-12T16:03:59.313Z,0.4
2022-08-12T16:04:57.279Z,0
2022-08-12T16:06:13.426Z,0.4
2022-08-12T16:07:16.600Z,0.3
2022-08-12T16:08:27.302Z,0.4
2022-08-12T16:09:50.855Z,0
2022-08-12T16:10:44.630Z,0.1
2022-08-12T16:11:53.319Z,0.4
2022-08-12T16:13:01.987Z,0.1
2022-08-12T16:14:11.640Z,0.2
2022-08-12T16:15:20.859Z,0.3